Quantico MCAF /Turner field
KNYG : now visible

Airfield :











YOU CAN JOIN US ON...

 
LOGIN :

Register | Disclaimer

   EN    FR    IT 

 









Legend :    VFR   Marginal VFR   IFR   Intensive IFR   Very Intensive IFR
Visi :
Ceiling :
>= 8 km
>= 3000ft
5 to 8 km
1000 to 3000 ft
1500m to 5 km
500 to 1000 ft
800 to 1500m
200 to 500 ft
< 800m
< 200 ft
Symbols :   Thunderstorms  Fog  Heavy snow  Heavy precipitations  Wind > 20 kt






- Airport Elevation : 10 ft


KNYG - Quantico MCAF /Turner field

CURRENT METAR :
  • 291656Z 16011KT 10SM SCT025 BKN035 25/22 A2999 RMK AO2 SLP155 T02500217 $

EXPIRED METARs :
  • 291556Z 16011KT 10SM SCT027 BKN034 24/21 A3000 RMK AO2 SLP161 T02440211 $
  • 291519Z 16007KT 10SM SCT025 BKN032 25/22 A3001 RMK AO2 T02500217 $
  • 291456Z 17008KT 10SM BKN025 BKN030 24/22 A3001 RMK AO2 SLP164 T02440217 58013 $

TAF TAF KNYG
Valid from the 29 at 15:00 until the 30 at 15:00 UTC


2915/3015 17008KT 9999 BKN025 BKN030 BKN050 QNH2989INS
TEMPO 2918/3000 VRB15G25KT 3200 TSRA BKN040CB
FM300000 20009KT 9999 SCT030 SCT100 QNH2991INS
BECMG 3006/3008 VRB06KT 8000 RA BR SCT020 BKN045 QNH2988INS T31/2920Z T22/3011Z
KZDC FIR / North America



MET'MAP, your aeronautical weather chart ! - Copyright ORBIFLY December 2007 - Disclaimer

ORBIFLY MET'MAP TEAM :

Programming & Development : Alexandra Zaïnal
Concept & original design : Baudouin d'Aumeries
Assistance for programming : Marc-Olivier Méhu
Technical & hardware support : Manuel Goepfert

Contact : metmap@orbifly.com




SOURCES & CREDITS :

   NOAA       Earth
Advisory